createdAt,value
2018-12-02T00:01:49.196Z,2.70
2018-12-02T00:04:23.623Z,2.70
2018-12-02T00:06:57.997Z,2.70
2018-12-02T00:09:32.410Z,2.70
2018-12-02T00:12:06.741Z,2.60
2018-12-02T00:14:41.184Z,2.60
2018-12-02T00:17:15.645Z,2.50
2018-12-02T00:19:50.518Z,2.50
2018-12-02T00:22:25.109Z,2.40
2018-12-02T00:24:59.611Z,2.40
2018-12-02T00:27:33.915Z,2.40
2018-12-02T00:30:14.378Z,2.40
2018-12-02T00:32:48.699Z,2.40
2018-12-02T00:35:22.987Z,2.30
2018-12-02T00:37:59.599Z,2.20
2018-12-02T00:40:33.932Z,2.20
2018-12-02T00:43:08.722Z,2.20
2018-12-02T00:45:43.143Z,2.10
2018-12-02T00:48:17.495Z,2.10
2018-12-02T00:50:51.822Z,2.10
2018-12-02T00:53:26.256Z,2.00
2018-12-02T00:56:00.450Z,2.00
2018-12-02T00:58:34.855Z,1.90
2018-12-02T01:01:09.248Z,1.90
2018-12-02T01:03:43.644Z,1.80
2018-12-02T01:06:17.991Z,1.80
2018-12-02T01:08:52.257Z,1.70
2018-12-02T01:11:26.661Z,1.70
2018-12-02T01:14:00.839Z,1.70
2018-12-02T01:16:35.105Z,1.70
2018-12-02T01:19:09.451Z,1.70
2018-12-02T01:21:43.844Z,1.70
2018-12-02T01:24:18.175Z,1.70
2018-12-02T01:26:52.421Z,1.80
2018-12-02T01:29:26.690Z,1.80
2018-12-02T01:32:01.029Z,1.90
2018-12-02T01:34:35.439Z,1.90
2018-12-02T01:37:09.698Z,2.00
2018-12-02T01:39:43.904Z,2.00
2018-12-02T01:42:18.190Z,1.90
2018-12-02T01:44:52.577Z,2.00
2018-12-02T01:47:27.045Z,1.90
2018-12-02T01:50:01.288Z,1.80
2018-12-02T01:52:35.696Z,1.80
2018-12-02T01:55:10.142Z,1.70
2018-12-02T01:57:44.500Z,1.70
2018-12-02T02:00:23.818Z,1.70
2018-12-02T02:02:58.230Z,1.60
2018-12-02T02:05:32.529Z,1.60
2018-12-02T02:08:06.933Z,1.60
2018-12-02T02:10:41.181Z,1.50
2018-12-02T02:13:15.658Z,1.50
2018-12-02T02:15:49.956Z,1.50
2018-12-02T02:18:24.436Z,1.50
2018-12-02T02:20:58.756Z,1.60
2018-12-02T02:23:33.034Z,1.50
2018-12-02T02:26:07.428Z,1.50
2018-12-02T02:28:41.833Z,1.40
2018-12-02T02:31:16.314Z,1.40
2018-12-02T02:33:50.632Z,1.40
2018-12-02T02:36:24.940Z,1.30
2018-12-02T02:38:59.171Z,1.30
2018-12-02T02:41:33.509Z,1.30
2018-12-02T02:44:07.754Z,1.30
2018-12-02T02:46:42.101Z,1.30
2018-12-02T02:49:16.385Z,1.30
2018-12-02T02:51:50.759Z,1.20
2018-12-02T02:54:25.020Z,1.10
2018-12-02T02:56:59.444Z,1.10
2018-12-02T02:59:34.374Z,1.10
2018-12-02T03:02:08.741Z,1.10
2018-12-02T03:04:42.995Z,1.10
2018-12-02T03:07:17.911Z,1.10
2018-12-02T03:09:52.235Z,1.10
2018-12-02T03:12:26.557Z,1.10
2018-12-02T03:15:00.802Z,1.10
2018-12-02T03:17:35.176Z,1.10
2018-12-02T03:20:12.628Z,1.00
2018-12-02T03:22:49.298Z,1.00
2018-12-02T03:25:24.729Z,1.00
2018-12-02T03:27:59.029Z,1.00
2018-12-02T03:30:33.294Z,1.00
2018-12-02T03:33:07.772Z,1.00
2018-12-02T03:35:42.143Z,1.00
2018-12-02T03:38:16.336Z,1.00
2018-12-02T03:40:50.974Z,1.00
2018-12-02T03:43:25.407Z,1.00
2018-12-02T03:45:59.681Z,1.00
2018-12-02T03:48:33.995Z,1.00
2018-12-02T03:51:08.398Z,1.00
2018-12-02T03:53:42.669Z,0.90
2018-12-02T03:56:17.809Z,0.90
2018-12-02T03:58:52.258Z,0.90
2018-12-02T04:01:26.759Z,1.00
2018-12-02T04:04:01.032Z,1.00
2018-12-02T04:06:35.588Z,1.00
2018-12-02T04:09:09.939Z,1.00
2018-12-02T04:11:44.505Z,1.00
2018-12-02T04:14:18.853Z,1.00
2018-12-02T04:16:53.580Z,1.10
2018-12-02T04:19:28.893Z,1.10
2018-12-02T04:22:03.179Z,1.10
2018-12-02T04:24:37.658Z,1.20
2018-12-02T04:27:11.976Z,1.20
2018-12-02T04:29:46.333Z,1.10
2018-12-02T04:32:20.845Z,1.10
2018-12-02T04:34:55.392Z,1.20
2018-12-02T04:37:29.978Z,1.20
2018-12-02T04:40:07.170Z,1.20
2018-12-02T04:42:41.727Z,1.10
2018-12-02T04:45:17.941Z,1.10
2018-12-02T04:47:52.373Z,1.20
2018-12-02T04:50:26.697Z,1.20
2018-12-02T04:53:01.028Z,1.10
2018-12-02T04:55:35.309Z,1.20
2018-12-02T04:58:09.751Z,1.20
2018-12-02T05:00:44.269Z,1.20
2018-12-02T05:03:18.700Z,1.20
2018-12-02T05:05:53.113Z,1.30
2018-12-02T05:08:27.382Z,1.30
2018-12-02T05:11:01.828Z,1.30
2018-12-02T05:13:36.343Z,1.30
2018-12-02T05:16:10.714Z,1.40
2018-12-02T05:18:45.059Z,1.40
2018-12-02T05:21:19.320Z,1.40
2018-12-02T05:23:53.640Z,1.40
2018-12-02T05:26:27.947Z,1.40
2018-12-02T05:29:02.145Z,1.50
2018-12-02T05:31:36.541Z,1.50
2018-12-02T05:34:10.824Z,1.60
2018-12-02T05:36:45.099Z,1.60
2018-12-02T05:39:19.429Z,1.60
2018-12-02T05:41:59.146Z,1.70
2018-12-02T05:44:33.375Z,1.70
2018-12-02T05:47:07.544Z,1.80
2018-12-02T05:49:41.729Z,1.90
2018-12-02T05:52:16.214Z,1.90
2018-12-02T05:54:50.462Z,1.90
2018-12-02T05:57:24.830Z,1.90
2018-12-02T05:59:59.018Z,1.90
2018-12-02T06:02:33.346Z,1.90
2018-12-02T06:05:09.609Z,2.00
2018-12-02T06:07:43.950Z,1.90
2018-12-02T06:10:20.386Z,1.90
2018-12-02T06:12:54.832Z,1.90
2018-12-02T06:15:29.270Z,1.90
2018-12-02T06:18:03.733Z,1.90
2018-12-02T06:20:37.931Z,2.00
2018-12-02T06:23:12.166Z,2.00
2018-12-02T06:25:46.658Z,2.00
2018-12-02T06:28:20.996Z,2.00
2018-12-02T06:30:55.181Z,2.10
2018-12-02T06:33:29.452Z,2.00
2018-12-02T06:36:03.862Z,2.00
2018-12-02T06:38:38.273Z,2.10
2018-12-02T06:41:12.618Z,2.10
2018-12-02T06:43:47.088Z,2.20
2018-12-02T06:46:21.449Z,2.20
2018-12-02T06:48:55.737Z,2.20
2018-12-02T06:51:30.084Z,2.20
2018-12-02T06:54:04.354Z,2.20
2018-12-02T06:56:38.972Z,2.20
2018-12-02T06:59:24.614Z,2.20
2018-12-02T07:02:02.412Z,2.20
2018-12-02T07:04:38.578Z,2.20
2018-12-02T07:07:12.901Z,2.30
2018-12-02T07:09:47.206Z,2.30
2018-12-02T07:12:21.589Z,2.40
2018-12-02T07:14:55.854Z,2.40
2018-12-02T07:17:30.068Z,2.40
2018-12-02T07:20:04.926Z,2.40
2018-12-02T07:22:39.411Z,2.50
2018-12-02T07:25:13.848Z,2.50
2018-12-02T07:27:48.161Z,2.50
2018-12-02T07:30:25.007Z,2.60
2018-12-02T07:32:56.884Z,2.60
2018-12-02T07:35:31.221Z,2.70
2018-12-02T07:38:18.227Z,2.70
2018-12-02T07:40:53.495Z,2.80
2018-12-02T07:43:27.670Z,2.80
2018-12-02T07:46:01.988Z,2.80
2018-12-02T07:48:36.360Z,2.90
2018-12-02T07:51:10.734Z,2.90
2018-12-02T07:53:45.092Z,2.80
2018-12-02T07:56:19.390Z,2.80
2018-12-02T07:58:53.725Z,2.80
2018-12-02T08:01:28.094Z,2.90
2018-12-02T08:04:02.389Z,2.90
2018-12-02T08:06:36.770Z,3.00
2018-12-02T08:09:11.397Z,3.00
2018-12-02T08:11:45.863Z,2.90
2018-12-02T08:14:20.302Z,2.90
2018-12-02T08:16:54.656Z,2.90
2018-12-02T08:19:28.986Z,2.90
2018-12-02T08:22:03.297Z,2.80
2018-12-02T08:24:37.594Z,2.90
2018-12-02T08:27:11.953Z,2.90
2018-12-02T08:29:46.270Z,2.80
2018-12-02T08:32:20.643Z,2.60
2018-12-02T08:34:54.943Z,2.60
2018-12-02T08:37:29.370Z,2.50
2018-12-02T08:40:04.133Z,2.50
2018-12-02T08:42:38.593Z,2.50
2018-12-02T08:45:14.941Z,2.60
2018-12-02T08:47:49.336Z,2.70
2018-12-02T08:50:23.713Z,2.70
2018-12-02T08:52:58.011Z,2.80
2018-12-02T08:55:32.510Z,2.90
2018-12-02T08:58:07.089Z,3.00
2018-12-02T09:00:41.577Z,3.10
2018-12-02T09:03:16.078Z,3.20
2018-12-02T09:05:50.555Z,3.30
2018-12-02T09:08:24.801Z,3.30
2018-12-02T09:10:59.099Z,3.40
2018-12-02T09:13:33.492Z,3.40
2018-12-02T09:16:07.818Z,3.40
2018-12-02T09:18:42.238Z,3.50
2018-12-02T09:21:16.756Z,3.50
2018-12-02T09:23:51.144Z,3.50
2018-12-02T09:26:25.480Z,3.60
2018-12-02T09:28:59.964Z,3.60
2018-12-02T09:31:34.318Z,3.60
2018-12-02T09:34:08.789Z,3.70
2018-12-02T09:36:43.130Z,3.80
2018-12-02T09:39:18.431Z,3.90
2018-12-02T09:41:52.305Z,4.00
2018-12-02T09:44:26.720Z,4.20
2018-12-02T09:47:01.038Z,4.20
2018-12-02T09:49:35.358Z,4.30
2018-12-02T09:52:09.773Z,4.40
2018-12-02T09:54:44.240Z,4.40
2018-12-02T09:57:18.660Z,4.50
2018-12-02T09:59:53.206Z,4.60
2018-12-02T10:02:27.522Z,4.70
2018-12-02T10:05:02.096Z,4.80
2018-12-02T10:07:36.707Z,4.80
2018-12-02T10:10:22.168Z,4.90
2018-12-02T10:12:55.900Z,5.00
2018-12-02T10:15:30.389Z,5.00
2018-12-02T10:18:04.722Z,5.10
2018-12-02T10:20:39.225Z,5.10
2018-12-02T10:23:13.644Z,5.20
2018-12-02T10:25:48.200Z,5.20
2018-12-02T10:28:22.427Z,5.30
2018-12-02T10:30:56.673Z,5.40
2018-12-02T10:33:31.143Z,5.40
2018-12-02T10:36:05.858Z,5.40
2018-12-02T10:38:40.224Z,5.30
2018-12-02T10:41:14.563Z,5.30
2018-12-02T10:43:48.807Z,5.30
2018-12-02T10:46:23.076Z,5.40
2018-12-02T10:48:57.524Z,5.40
2018-12-02T10:51:31.896Z,5.40
2018-12-02T10:54:06.325Z,5.50
2018-12-02T10:56:40.999Z,5.60
2018-12-02T10:59:15.345Z,5.70
2018-12-02T11:01:53.874Z,5.70
2018-12-02T11:04:28.122Z,5.80
2018-12-02T11:07:02.626Z,5.80
2018-12-02T11:09:36.845Z,5.90
2018-12-02T11:12:11.072Z,6.00
2018-12-02T11:14:45.626Z,6.00
2018-12-02T11:17:19.859Z,6.10
2018-12-02T11:19:54.241Z,6.20
2018-12-02T11:22:28.473Z,6.30
2018-12-02T11:25:02.689Z,6.50
2018-12-02T11:27:37.134Z,6.50
2018-12-02T11:30:13.467Z,6.60
2018-12-02T11:32:48.277Z,6.70
2018-12-02T11:35:22.822Z,6.70
2018-12-02T11:37:57.098Z,6.80
2018-12-02T11:40:31.494Z,6.80
2018-12-02T11:43:06.993Z,6.90
2018-12-02T11:45:41.429Z,7.00
2018-12-02T11:48:15.649Z,7.10
2018-12-02T11:50:50.729Z,7.10
2018-12-02T11:53:24.336Z,7.20
2018-12-02T11:55:58.632Z,7.30
2018-12-02T11:58:33.694Z,7.40
2018-12-02T12:01:08.042Z,7.40
2018-12-02T12:03:42.363Z,7.50
2018-12-02T12:06:16.678Z,7.50
2018-12-02T12:08:51.132Z,7.50
2018-12-02T12:11:25.367Z,7.60
2018-12-02T12:13:59.705Z,7.60
2018-12-02T12:16:34.207Z,7.60
2018-12-02T12:19:08.549Z,7.70
2018-12-02T12:21:42.950Z,7.70
2018-12-02T12:24:17.334Z,7.70
2018-12-02T12:26:51.823Z,7.70
2018-12-02T12:29:26.388Z,7.80
2018-12-02T12:32:00.645Z,7.70
2018-12-02T12:34:34.921Z,7.70
2018-12-02T12:37:09.303Z,7.70
2018-12-02T12:39:43.746Z,7.70
2018-12-02T12:42:18.137Z,7.70
2018-12-02T12:44:52.524Z,7.80
2018-12-02T12:47:27.079Z,7.70
2018-12-02T12:50:01.468Z,7.70
2018-12-02T12:52:35.727Z,7.70
2018-12-02T12:55:16.200Z,7.70
2018-12-02T12:57:50.763Z,7.60
2018-12-02T13:00:25.125Z,7.60
2018-12-02T13:02:59.470Z,7.60
2018-12-02T13:05:33.779Z,7.60
2018-12-02T13:08:09.800Z,7.70
2018-12-02T13:10:44.267Z,7.70
2018-12-02T13:13:18.713Z,7.90
2018-12-02T13:15:53.026Z,7.90
2018-12-02T13:18:27.276Z,8.00
2018-12-02T13:21:01.597Z,8.10
2018-12-02T13:23:35.941Z,8.10
2018-12-02T13:26:10.241Z,8.10
2018-12-02T13:28:44.549Z,8.20
2018-12-02T13:31:18.878Z,8.20
2018-12-02T13:33:53.132Z,8.20
2018-12-02T13:36:27.459Z,8.20
2018-12-02T13:39:02.038Z,8.20
2018-12-02T13:41:36.330Z,8.20
2018-12-02T13:44:11.424Z,8.20
2018-12-02T13:46:45.805Z,8.30
2018-12-02T13:49:20.193Z,8.30
2018-12-02T13:51:54.584Z,8.30
2018-12-02T13:54:34.485Z,8.30
2018-12-02T13:57:08.963Z,8.30
2018-12-02T13:59:43.470Z,8.30
2018-12-02T14:02:17.945Z,8.40
2018-12-02T14:04:52.350Z,8.50
2018-12-02T14:07:26.895Z,8.50
2018-12-02T14:10:01.266Z,8.60
2018-12-02T14:12:35.538Z,8.60
2018-12-02T14:15:46.166Z,8.60
2018-12-02T14:18:26.444Z,8.60
2018-12-02T14:21:00.834Z,8.60
2018-12-02T14:23:35.838Z,8.60
2018-12-02T14:26:12.165Z,8.70
2018-12-02T14:28:59.205Z,8.70
2018-12-02T14:31:35.489Z,8.70
2018-12-02T14:34:09.738Z,8.70
2018-12-02T14:36:43.972Z,8.80
2018-12-02T14:39:18.333Z,8.80
2018-12-02T14:41:52.671Z,8.70
2018-12-02T14:44:26.899Z,8.80
2018-12-02T14:47:01.265Z,8.80
2018-12-02T14:49:35.726Z,8.90
2018-12-02T14:52:10.129Z,8.90
2018-12-02T14:54:44.534Z,9.00
2018-12-02T14:57:18.820Z,9.00
2018-12-02T14:59:53.149Z,9.00
2018-12-02T15:02:27.482Z,9.00
2018-12-02T15:05:01.701Z,9.00
2018-12-02T15:07:36.162Z,9.10
2018-12-02T15:10:17.702Z,9.10
2018-12-02T15:12:52.055Z,9.10
2018-12-02T15:15:26.333Z,9.20
2018-12-02T15:18:00.594Z,9.10
2018-12-02T15:20:34.961Z,9.10
2018-12-02T15:23:09.269Z,9.10
2018-12-02T15:25:43.704Z,9.10
2018-12-02T15:28:17.946Z,9.10
2018-12-02T15:30:52.473Z,9.10
2018-12-02T15:33:26.814Z,9.00
2018-12-02T15:36:01.131Z,9.00
2018-12-02T15:38:35.498Z,8.90
2018-12-02T15:41:09.807Z,8.90
2018-12-02T15:43:44.326Z,8.80
2018-12-02T15:46:18.560Z,8.70
2018-12-02T15:48:52.884Z,8.70
2018-12-02T15:51:27.152Z,8.70
2018-12-02T15:54:01.372Z,8.70
2018-12-02T15:56:35.935Z,8.70
2018-12-02T15:59:10.244Z,8.70
2018-12-02T16:01:44.573Z,8.60
2018-12-02T16:04:18.883Z,8.60
2018-12-02T16:06:53.135Z,8.60
2018-12-02T16:09:27.464Z,8.60
2018-12-02T16:12:01.835Z,8.50
2018-12-02T16:14:36.313Z,8.50
2018-12-02T16:17:10.659Z,8.50
2018-12-02T16:19:45.145Z,8.50
2018-12-02T16:22:19.527Z,8.50
2018-12-02T16:24:53.953Z,8.50
2018-12-02T16:27:28.447Z,8.50
2018-12-02T16:30:03.317Z,8.50
2018-12-02T16:32:37.756Z,8.40
2018-12-02T16:35:13.240Z,8.40
2018-12-02T16:37:49.604Z,8.40
2018-12-02T16:40:25.094Z,8.40
2018-12-02T16:42:59.352Z,8.30
2018-12-02T16:45:33.866Z,8.30
2018-12-02T16:48:09.736Z,8.40
2018-12-02T16:50:45.689Z,8.30
2018-12-02T16:53:24.627Z,8.30
2018-12-02T16:56:06.882Z,8.30
2018-12-02T16:58:51.983Z,8.30
2018-12-02T17:01:27.767Z,8.30
2018-12-02T17:04:03.199Z,8.30
2018-12-02T17:06:37.468Z,8.30
2018-12-02T17:09:12.639Z,8.30
2018-12-02T17:11:46.907Z,8.20
2018-12-02T17:14:21.117Z,8.20
2018-12-02T17:16:55.457Z,8.10
2018-12-02T17:19:29.899Z,8.10
2018-12-02T17:22:04.308Z,8.00
2018-12-02T17:24:38.608Z,8.00
2018-12-02T17:27:12.831Z,8.00
2018-12-02T17:29:47.278Z,8.00
2018-12-02T17:32:21.633Z,8.00
2018-12-02T17:34:56.033Z,8.00
2018-12-02T17:37:30.502Z,8.00
2018-12-02T17:40:09.897Z,8.00
2018-12-02T17:42:44.123Z,8.00
2018-12-02T17:45:18.491Z,8.00
2018-12-02T17:47:52.883Z,8.10
2018-12-02T17:50:27.300Z,8.10
2018-12-02T17:53:01.743Z,8.10
2018-12-02T17:55:36.007Z,8.00
2018-12-02T17:58:10.190Z,8.00
2018-12-02T18:00:44.513Z,8.00
2018-12-02T18:03:24.872Z,8.00
2018-12-02T18:05:59.440Z,8.00
2018-12-02T18:08:33.795Z,8.00
2018-12-02T18:11:08.342Z,8.00
2018-12-02T18:13:43.005Z,8.00
2018-12-02T18:16:17.466Z,8.00
2018-12-02T18:18:51.908Z,8.00
2018-12-02T18:21:26.253Z,7.90
2018-12-02T18:24:00.693Z,7.90
2018-12-02T18:26:35.021Z,7.90
2018-12-02T18:29:09.351Z,7.90
2018-12-02T18:31:43.796Z,7.90
2018-12-02T18:34:18.300Z,7.90
2018-12-02T18:36:53.168Z,7.90
2018-12-02T18:39:27.549Z,7.90
2018-12-02T18:42:01.906Z,7.90
2018-12-02T18:44:36.237Z,7.90
2018-12-02T18:47:10.770Z,8.00
2018-12-02T18:49:45.262Z,8.00
2018-12-02T18:52:19.680Z,8.00
2018-12-02T18:54:53.926Z,8.00
2018-12-02T18:57:28.329Z,8.00
2018-12-02T19:00:02.607Z,8.00
2018-12-02T19:02:36.879Z,8.00
2018-12-02T19:05:11.233Z,8.00
2018-12-02T19:07:45.459Z,8.00
2018-12-02T19:10:21.430Z,8.00
2018-12-02T19:12:55.835Z,8.00
2018-12-02T19:15:30.279Z,8.00
2018-12-02T19:18:04.672Z,8.10
2018-12-02T19:20:38.948Z,8.00
2018-12-02T19:23:15.689Z,8.00
2018-12-02T19:25:50.302Z,8.10
2018-12-02T19:28:24.548Z,8.00
2018-12-02T19:30:59.022Z,8.00
2018-12-02T19:33:33.313Z,8.00
2018-12-02T19:36:10.234Z,8.00
2018-12-02T19:38:44.580Z,8.00
2018-12-02T19:41:19.066Z,8.00
2018-12-02T19:43:54.151Z,8.00
2018-12-02T19:46:28.799Z,8.00
2018-12-02T19:49:03.158Z,8.00
2018-12-02T19:51:37.509Z,8.10
2018-12-02T19:54:11.806Z,8.10
2018-12-02T19:56:46.768Z,8.00
2018-12-02T19:59:21.186Z,8.00
2018-12-02T20:01:55.507Z,8.00
2018-12-02T20:04:29.755Z,8.00
2018-12-02T20:07:04.052Z,8.10
2018-12-02T20:09:38.313Z,8.10
2018-12-02T20:12:12.729Z,8.10
2018-12-02T20:14:47.046Z,8.10
2018-12-02T20:17:21.295Z,8.10
2018-12-02T20:20:00.915Z,8.10
2018-12-02T20:22:35.270Z,8.10
2018-12-02T20:25:09.539Z,8.20
2018-12-02T20:27:43.784Z,8.20
2018-12-02T20:30:19.501Z,8.20
2018-12-02T20:32:53.690Z,8.10
2018-12-02T20:35:28.013Z,8.10
2018-12-02T20:38:02.452Z,8.20
2018-12-02T20:40:36.920Z,8.20
2018-12-02T20:43:11.442Z,8.10
2018-12-02T20:45:45.895Z,8.10
2018-12-02T20:48:20.274Z,8.10
2018-12-02T20:50:54.577Z,8.20
2018-12-02T20:53:28.874Z,8.20
2018-12-02T20:56:03.197Z,8.20
2018-12-02T20:58:37.444Z,8.20
2018-12-02T21:01:11.789Z,8.20
2018-12-02T21:03:47.474Z,8.20
2018-12-02T21:06:22.233Z,8.20
2018-12-02T21:08:56.462Z,8.20
2018-12-02T21:11:30.852Z,8.20
2018-12-02T21:14:05.435Z,8.20
2018-12-02T21:16:39.699Z,8.20
2018-12-02T21:19:13.992Z,8.30
2018-12-02T21:21:48.256Z,8.30
2018-12-02T21:24:22.529Z,8.40
2018-12-02T21:26:56.776Z,8.40
2018-12-02T21:29:31.237Z,8.40
2018-12-02T21:32:06.237Z,8.40
2018-12-02T21:34:40.701Z,8.40
2018-12-02T21:37:15.073Z,8.40
2018-12-02T21:39:49.402Z,8.50
2018-12-02T21:42:23.762Z,8.50
2018-12-02T21:44:58.080Z,8.50
2018-12-02T21:47:32.499Z,8.60
2018-12-02T21:50:10.936Z,8.60
2018-12-02T21:52:45.321Z,8.60
2018-12-02T21:55:19.606Z,8.60
2018-12-02T21:57:53.889Z,8.60
2018-12-02T22:00:33.878Z,8.60
2018-12-02T22:03:08.249Z,8.70
2018-12-02T22:05:42.773Z,8.70
2018-12-02T22:08:17.103Z,8.80
2018-12-02T22:10:51.585Z,8.80
2018-12-02T22:13:26.101Z,8.80
2018-12-02T22:16:00.765Z,8.80
2018-12-02T22:18:35.143Z,8.80
2018-12-02T22:21:09.573Z,8.80
2018-12-02T22:23:43.991Z,8.60
2018-12-02T22:26:18.533Z,8.60
2018-12-02T22:28:53.051Z,8.60
2018-12-02T22:31:27.532Z,8.70
2018-12-02T22:34:01.947Z,8.70
2018-12-02T22:36:36.327Z,8.70
2018-12-02T22:39:10.759Z,8.80
2018-12-02T22:41:45.843Z,8.80
2018-12-02T22:44:20.649Z,8.80
2018-12-02T22:46:55.250Z,8.80
2018-12-02T22:49:29.692Z,8.70
2018-12-02T22:52:04.241Z,8.80
2018-12-02T22:54:38.597Z,8.80
2018-12-02T22:57:13.029Z,8.80
2018-12-02T22:59:47.513Z,8.80
2018-12-02T23:02:26.869Z,8.80
2018-12-02T23:05:01.269Z,8.80
2018-12-02T23:07:35.658Z,8.80
2018-12-02T23:10:10.150Z,8.80
2018-12-02T23:12:44.867Z,8.80
2018-12-02T23:15:19.365Z,8.80
2018-12-02T23:17:53.858Z,8.90
2018-12-02T23:20:28.233Z,8.90
2018-12-02T23:23:02.710Z,8.90
2018-12-02T23:25:37.059Z,8.90
2018-12-02T23:28:11.432Z,8.90
2018-12-02T23:30:45.981Z,8.90
2018-12-02T23:33:20.393Z,8.90
2018-12-02T23:35:55.158Z,8.90
2018-12-02T23:38:29.729Z,8.80
2018-12-02T23:41:04.531Z,8.80
2018-12-02T23:43:38.833Z,8.80
2018-12-02T23:46:13.246Z,8.80
2018-12-02T23:48:47.736Z,8.80
2018-12-02T23:51:22.368Z,8.90
2018-12-02T23:53:56.963Z,8.90
2018-12-02T23:56:31.387Z,8.90
2018-12-02T23:59:05.885Z,9.00
